Time;durP1;ratioP1;P1;durP2;ratioP2;P2;SDS_P1;SDS_P2;PMS_P1;PMS_P2;Temp;Humidity;BMP_temperature;BMP_pressure;BME280_temperature;BME280_humidity;BME280_pressure;Samples;Min_cycle;Max_cycle;Signal;HPM_P1;HPM_P2
2021/03/21 00:01:39;;;;;;;6.47;4.40;;;;;;;6.16;77.08;101679.13;6172517;28;20230;-57
2021/03/21 00:05:00;;;;;;;5.50;3.40;;;;;;;5.68;78.95;101680.56;6170322;28;20255;-57
2021/03/21 00:08:23;;;;;;;4.27;3.07;;;;;;;6.07;77.50;101673.78;6169316;28;20233;-50
2021/03/21 00:11:44;;;;;;;4.97;3.63;;;;;;;6.05;78.37;101663.38;6151969;28;20241;-57
2021/03/21 00:15:06;;;;;;;4.13;3.07;;;;;;;6.33;76.77;101665.72;6169447;28;20253;-54
2021/03/21 00:18:30;;;;;;;4.47;3.77;;;;;;;6.06;77.30;101651.31;6176063;28;20234;-56
2021/03/21 00:21:51;;;;;;;4.07;3.67;;;;;;;6.11;77.22;101645.41;6170583;28;20305;-56
2021/03/21 00:25:16;;;;;;;4.40;3.37;;;;;;;6.02;77.47;101645.19;6174665;28;20238;-57
2021/03/21 00:28:38;;;;;;;5.83;3.53;;;;;;;6.26;76.66;101636.22;6178479;28;20236;-59
2021/03/21 00:31:58;;;;;;;4.73;3.97;;;;;;;6.23;76.58;101631.00;6177076;28;20682;-54
2021/03/21 00:35:19;;;;;;;4.37;3.30;;;;;;;6.38;76.19;101636.50;6179706;28;20391;-56
2021/03/21 00:38:43;;;;;;;4.57;3.50;;;;;;;6.18;77.17;101632.59;6166858;28;20242;-56
2021/03/21 00:42:04;;;;;;;7.93;4.57;;;;;;;6.10;77.90;101629.84;6176710;28;20239;-57
2021/03/21 00:45:26;;;;;;;5.33;4.30;;;;;;;6.46;76.11;101609.06;6183433;28;20241;-55
2021/03/21 00:48:47;;;;;;;3.73;3.43;;;;;;;6.57;75.75;101611.91;6175637;28;20234;-54
2021/03/21 00:52:08;;;;;;;4.00;3.37;;;;;;;6.10;77.64;101591.94;6182926;28;20560;-59
2021/03/21 00:55:29;;;;;;;5.77;4.23;;;;;;;6.05;78.65;101585.81;6180791;28;20230;-53
2021/03/21 00:58:50;;;;;;;4.20;3.83;;;;;;;6.27;77.62;101583.66;6181517;28;20428;-57
2021/03/21 01:02:10;;;;;;;3.30;3.00;;;;;;;6.29;77.70;101569.91;6178063;28;20241;-57
2021/03/21 01:05:35;;;;;;;5.33;3.80;;;;;;;6.31;77.50;101567.38;6186157;28;20237;-57
2021/03/21 01:08:58;;;;;;;4.70;4.17;;;;;;;6.21;77.84;101562.84;6186531;28;20313;-57
2021/03/21 01:12:19;;;;;;;4.90;4.27;;;;;;;6.30;77.84;101550.97;6180195;28;20233;-57
2021/03/21 01:15:39;;;;;;;5.60;5.10;;;;;;;6.04;78.90;101554.72;6183698;28;20233;-55
2021/03/21 01:19:01;;;;;;;4.77;4.37;;;;;;;6.45;77.35;101555.56;6182915;28;20223;-56
2021/03/21 01:22:22;;;;;;;5.83;4.83;;;;;;;6.46;77.54;101554.75;6177480;28;20238;-55
2021/03/21 01:25:43;;;;;;;8.33;4.50;;;;;;;6.52;77.13;101566.06;6177487;28;20233;-56
2021/03/21 01:29:04;;;;;;;6.50;4.30;;;;;;;6.60;76.27;101556.72;6180618;28;20244;-54
2021/03/21 01:32:24;;;;;;;5.63;4.17;;;;;;;6.80;76.27;101551.91;6176219;28;20241;-52
2021/03/21 01:35:46;;;;;;;5.90;5.27;;;;;;;6.47;77.83;101546.13;6177552;28;20534;-58
2021/03/21 01:39:10;;;;;;;6.33;5.70;;;;;;;6.42;78.57;101532.25;6178705;28;20233;-56
2021/03/21 01:42:36;;;;;;;5.40;4.90;;;;;;;6.53;78.17;101519.50;6166824;28;20512;-58
2021/03/21 01:45:58;;;;;;;6.57;5.27;;;;;;;6.55;78.53;101516.94;6175433;28;20218;-57
2021/03/21 01:49:22;;;;;;;6.20;5.60;;;;;;;6.45;78.83;101511.56;6175811;28;20301;-56
2021/03/21 01:52:43;;;;;;;9.23;5.97;;;;;;;6.70;78.11;101512.03;6176625;28;20329;-57
2021/03/21 01:56:04;;;;;;;8.50;5.90;;;;;;;6.39;79.48;101501.13;6176827;28;20229;-56
2021/03/21 01:59:26;;;;;;;6.60;5.63;;;;;;;6.56;78.90;101503.16;6181352;28;20226;-57
2021/03/21 02:02:48;;;;;;;6.70;5.23;;;;;;;6.50;79.10;101489.25;6181418;28;20230;-55
2021/03/21 02:06:24;;;;;;;7.13;6.47;;;;;;;6.53;78.85;101496.19;6167638;28;20477;-57
2021/03/21 02:09:54;;;;;;;7.23;5.77;;;;;;;6.45;80.11;101501.22;6179253;28;20253;-56
2021/03/21 02:13:21;;;;;;;5.90;4.97;;;;;;;6.69;78.57;101489.59;6178033;28;20238;-54
2021/03/21 02:16:46;;;;;;;6.63;5.03;;;;;;;6.75;78.54;101489.72;6179082;28;20234;-54
2021/03/21 02:20:26;;;;;;;5.37;4.67;;;;;;;6.67;78.64;101488.72;6170331;28;20241;-57
2021/03/21 02:24:11;;;;;;;5.23;4.73;;;;;;;6.75;78.31;101471.59;6173973;28;20639;-57
2021/03/21 02:27:45;;;;;;;3.53;3.13;;;;;;;6.80;78.32;101488.06;6181700;28;20632;-53
2021/03/21 02:31:14;;;;;;;3.83;3.50;;;;;;;6.82;78.16;101478.59;6175994;28;20619;-56
2021/03/21 02:34:47;;;;;;;4.17;2.83;;;;;;;6.70;78.28;101460.28;6177884;28;20328;-57
2021/03/21 02:38:11;;;;;;;4.30;3.00;;;;;;;6.60;78.55;101448.03;6176233;28;20225;-56
2021/03/21 02:41:35;;;;;;;2.43;2.13;;;;;;;6.63;78.68;101458.41;6174092;28;20616;-59
2021/03/21 02:45:03;;;;;;;3.90;2.63;;;;;;;6.63;78.90;101448.06;6172617;28;20715;-57
2021/03/21 02:48:30;;;;;;;2.37;2.20;;;;;;;6.69;78.24;101437.84;6167045;28;20241;-56
2021/03/21 02:51:59;;;;;;;2.37;2.17;;;;;;;6.74;78.07;101432.72;6177700;28;20607;-55
2021/03/21 02:55:26;;;;;;;2.40;2.20;;;;;;;7.00;77.10;101422.75;6181626;28;20328;-57
2021/03/21 02:58:51;;;;;;;2.60;2.37;;;;;;;6.68;77.84;101411.06;6176489;28;20229;-57
2021/03/21 03:02:15;;;;;;;2.97;1.93;;;;;;;6.67;77.55;101404.16;6175253;28;20241;-57
2021/03/21 03:05:39;;;;;;;2.97;2.57;;;;;;;6.67;77.13;101434.34;6166173;28;20226;-56
2021/03/21 03:09:06;;;;;;;2.77;2.03;;;;;;;6.71;77.24;101420.63;6176865;28;20642;-57
2021/03/21 03:12:31;;;;;;;4.00;2.20;;;;;;;6.64;76.90;101419.63;6177625;28;20237;-55
2021/03/21 03:15:55;;;;;;;3.90;2.70;;;;;;;6.63;76.88;101417.00;6170569;28;20534;-55
2021/03/21 03:19:27;;;;;;;3.30;3.00;;;;;;;6.43;78.03;101393.38;6174693;28;20312;-55
2021/03/21 03:22:53;;;;;;;7.60;3.80;;;;;;;6.58;77.47;101387.59;6177018;28;20233;-56
2021/03/21 03:26:18;;;;;;;8.60;4.10;;;;;;;6.56;77.54;101384.97;6170733;28;20238;-55
2021/03/21 03:29:42;;;;;;;4.93;3.20;;;;;;;6.72;76.67;101375.75;6179152;28;20338;-55
2021/03/21 03:33:05;;;;;;;9.53;3.50;;;;;;;6.63;77.27;101366.13;6177788;28;20226;-55
2021/03/21 03:36:26;;;;;;;7.47;3.90;;;;;;;6.74;76.33;101361.09;6177569;28;20265;-57
2021/03/21 03:39:47;;;;;;;7.13;3.50;;;;;;;6.89;76.24;101363.06;6177068;28;20607;-56
2021/03/21 03:43:19;;;;;;;4.77;3.50;;;;;;;6.72;76.59;101355.03;6182566;28;20234;-55
2021/03/21 03:46:45;;;;;;;6.03;2.80;;;;;;;6.47;77.52;101352.06;6176800;28;20229;-56
2021/03/21 03:50:13;;;;;;;8.00;3.10;;;;;;;6.49;77.40;101352.97;6174682;28;20329;-57
2021/03/21 03:53:55;;;;;;;8.83;3.67;;;;;;;6.42;77.49;101355.44;6161920;28;20240;-58
2021/03/21 03:57:24;;;;;;;7.43;3.17;;;;;;;6.53;77.18;101332.31;6166297;28;20237;-56
2021/03/21 04:00:52;;;;;;;5.00;2.37;;;;;;;6.44;77.10;101326.16;6165579;28;20237;-55
2021/03/21 04:04:20;;;;;;;8.10;2.63;;;;;;;6.75;76.24;101329.22;6177727;28;20233;-54
2021/03/21 04:07:46;;;;;;;9.20;2.63;;;;;;;6.72;76.57;101333.47;6181392;28;20237;-55
2021/03/21 04:11:16;;;;;;;8.50;3.07;;;;;;;6.72;76.08;101323.97;6175171;28;20235;-56
2021/03/21 04:14:43;;;;;;;7.77;2.77;;;;;;;6.64;75.85;101320.41;6175816;28;20237;-53
2021/03/21 04:18:11;;;;;;;9.60;3.20;;;;;;;6.53;74.88;101325.41;6182219;28;20679;-56
2021/03/21 04:21:36;;;;;;;14.67;4.77;;;;;;;6.49;74.15;101316.75;6183291;28;20666;-57
2021/03/21 04:25:02;;;;;;;8.83;3.00;;;;;;;6.66;73.66;101313.53;6176306;28;20250;-57
2021/03/21 04:28:32;;;;;;;6.57;3.10;;;;;;;6.35;74.34;101297.53;6177763;28;20234;-55
2021/03/21 04:31:57;;;;;;;11.30;4.03;;;;;;;6.65;73.40;101306.59;6183671;28;20640;-57
2021/03/21 04:35:21;;;;;;;10.97;4.23;;;;;;;6.69;72.75;101298.06;6171441;28;20309;-57
2021/03/21 04:38:46;;;;;;;12.47;3.43;;;;;;;6.68;72.69;101306.66;6182280;28;20612;-56
2021/03/21 04:42:13;;;;;;;15.67;4.27;;;;;;;6.70;72.45;101310.13;6179316;28;20261;-57
2021/03/21 04:45:39;;;;;;;10.03;3.67;;;;;;;6.50;71.85;101302.94;6173858;28;20234;-56
2021/03/21 04:49:01;;;;;;;14.80;3.27;;;;;;;6.68;71.16;101312.69;6178313;28;20230;-56
2021/03/21 04:52:34;;;;;;;10.20;3.13;;;;;;;6.53;70.48;101306.44;6182320;28;20230;-56
2021/03/21 04:55:59;;;;;;;14.80;4.47;;;;;;;6.42;67.32;101319.22;6178210;28;20589;-57
2021/03/21 04:59:25;;;;;;;15.43;5.40;;;;;;;6.19;66.35;101339.53;6178431;28;20234;-59
2021/03/21 05:02:48;;;;;;;18.67;4.97;;;;;;;6.20;65.27;101347.28;6178512;28;20631;-58
2021/03/21 05:06:15;;;;;;;14.30;4.97;;;;;;;6.14;64.28;101364.41;6168197;28;23793;-55
2021/03/21 05:09:39;;;;;;;20.17;6.37;;;;;;;6.13;63.79;101368.72;6183531;28;20237;-54
2021/03/21 05:13:05;;;;;;;16.00;5.80;;;;;;;6.20;62.66;101364.53;6181418;28;20237;-54
2021/03/21 05:16:33;;;;;;;24.13;6.13;;;;;;;5.86;62.00;101362.16;6177449;28;20615;-58
2021/03/21 05:20:01;;;;;;;25.53;6.90;;;;;;;6.11;62.49;101371.28;6171636;28;21058;-55
2021/03/21 05:23:35;;;;;;;22.67;6.20;;;;;;;5.99;61.91;101372.75;6182489;28;20226;-56
2021/03/21 05:27:00;;;;;;;25.17;7.80;;;;;;;6.23;61.77;101367.19;6169228;28;20599;-53
2021/03/21 05:30:27;;;;;;;27.03;8.27;;;;;;;6.28;61.85;101362.94;6181564;28;20616;-55
2021/03/21 05:33:47;;;;;;;28.23;7.07;;;;;;;6.17;62.28;101364.50;6181677;28;20229;-57
2021/03/21 05:37:21;;;;;;;18.90;5.33;;;;;;;6.02;63.40;101365.94;6183251;28;20238;-58
2021/03/21 05:41:18;;;;;;;33.47;7.93;;;;;;;6.28;62.96;101350.00;6182697;28;20225;-55
2021/03/21 05:45:18;;;;;;;18.70;6.63;;;;;;;6.42;62.41;101370.97;6178891;28;20611;-57
2021/03/21 05:49:08;;;;;;;40.27;10.37;;;;;;;6.27;62.60;101362.06;6177533;28;20619;-57
2021/03/21 05:53:01;;;;;;;24.43;7.20;;;;;;;6.47;62.25;101369.31;6166277;28;20506;-55
2021/03/21 05:56:34;;;;;;;24.63;6.83;;;;;;;6.45;61.48;101374.44;6177427;28;20233;-56
2021/03/21 06:00:17;;;;;;;31.63;6.63;;;;;;;6.14;61.99;101385.13;6177627;28;20627;-57
2021/03/21 06:04:11;;;;;;;20.53;7.03;;;;;;;6.38;60.91;101387.25;6188527;28;20250;-56
2021/03/21 06:08:14;;;;;;;29.40;9.23;;;;;;;6.34;60.89;101388.03;6187358;28;20225;-56
2021/03/21 06:11:52;;;;;;;30.60;8.93;;;;;;;6.30;60.54;101394.88;6188449;28;20654;-59
2021/03/21 06:15:33;;;;;;;27.83;6.83;;;;;;;6.05;60.47;101407.38;6187693;28;20238;-56
2021/03/21 06:19:05;;;;;;;22.37;6.07;;;;;;;6.24;60.98;101413.78;6185347;28;20241;-58
2021/03/21 06:22:54;;;;;;;22.53;8.37;;;;;;;6.33;60.44;101413.06;6187601;28;20233;-55
2021/03/21 06:26:22;;;;;;;37.43;8.87;;;;;;;6.32;60.93;101421.66;6174708;28;20238;-58
2021/03/21 06:30:01;;;;;;;26.20;7.00;;;;;;;6.49;61.30;101421.94;6186245;28;20237;-56
2021/03/21 06:33:25;;;;;;;37.13;9.47;;;;;;;6.38;61.20;101411.44;6185788;28;20316;-56
2021/03/21 06:36:51;;;;;;;32.20;8.73;;;;;;;6.86;60.23;101414.78;6186665;28;20225;-57
2021/03/21 06:40:43;;;;;;;32.53;10.50;;;;;;;6.42;61.39;101414.94;6186278;28;20242;-58
2021/03/21 06:44:18;;;;;;;35.13;11.10;;;;;;;6.86;60.80;101415.69;6179937;28;20234;-57
2021/03/21 06:48:10;;;;;;;32.53;8.00;;;;;;;7.02;60.18;101416.78;6177843;28;20535;-57
2021/03/21 06:52:11;;;;;;;31.13;10.17;;;;;;;6.89;60.17;101426.06;6142888;28;20238;-58
2021/03/21 06:55:36;;;;;;;33.77;10.17;;;;;;;6.83;60.71;101425.97;6184741;28;20248;-58
2021/03/21 06:59:39;;;;;;;31.97;8.83;;;;;;;7.33;59.23;101431.88;6182331;28;20241;-56
2021/03/21 07:03:33;;;;;;;30.43;7.50;;;;;;;7.28;59.32;101429.25;6184574;28;20693;-56
2021/03/21 07:07:32;;;;;;;29.00;8.20;;;;;;;7.49;58.86;101428.66;6176962;28;20258;-55
2021/03/21 07:11:10;;;;;;;23.97;8.67;;;;;;;7.13;59.22;101426.41;6186278;28;20233;-56
2021/03/21 07:15:03;;;;;;;38.23;8.63;;;;;;;7.41;59.03;101443.25;6181846;28;20237;-54
2021/03/21 07:18:53;;;;;;;32.07;9.27;;;;;;;7.81;58.03;101446.34;6169036;28;20674;-56
2021/03/21 07:22:55;;;;;;;27.67;8.90;;;;;;;7.44;58.26;101430.31;6186237;28;20234;-52
2021/03/21 07:27:00;;;;;;;29.80;9.00;;;;;;;7.44;58.90;101438.09;6177543;28;20253;-58
2021/03/21 07:30:30;;;;;;;38.13;11.63;;;;;;;7.47;58.58;101435.56;6182781;28;20222;-59
2021/03/21 07:34:20;;;;;;;41.43;9.40;;;;;;;7.37;59.00;101438.88;6179220;28;20226;-57
2021/03/21 07:37:49;;;;;;;35.60;11.17;;;;;;;7.61;58.59;101439.19;6185878;28;20631;-58
2021/03/21 07:41:17;;;;;;;38.63;9.87;;;;;;;7.92;57.46;101429.19;6181137;28;20240;-57
2021/03/21 07:44:59;;;;;;;35.20;11.23;;;;;;;7.99;57.31;101431.03;6184405;28;20499;-58
2021/03/21 07:48:45;;;;;;;28.23;9.57;;;;;;;8.00;57.52;101427.56;6179223;28;20246;-57
2021/03/21 07:52:33;;;;;;;39.70;11.27;;;;;;;8.05;57.16;101422.44;6185913;28;20233;-57
2021/03/21 07:56:01;;;;;;;28.40;7.30;;;;;;;8.21;56.03;101436.44;6178541;28;22013;-55
2021/03/21 07:59:25;;;;;;;32.80;8.07;;;;;;;8.56;55.82;101438.53;6179613;28;20246;-57
2021/03/21 08:02:48;;;;;;;32.00;9.67;;;;;;;8.82;54.51;101438.75;6182271;28;20234;-57
2021/03/21 08:06:14;;;;;;;33.47;10.00;;;;;;;8.58;54.91;101444.63;6178841;28;20505;-57
2021/03/21 08:09:37;;;;;;;28.90;8.67;;;;;;;8.58;54.99;101439.44;6176292;28;20312;-58
2021/03/21 08:13:05;;;;;;;35.00;9.93;;;;;;;8.99;53.69;101431.09;6176255;28;20225;-57
2021/03/21 08:16:28;;;;;;;23.10;7.93;;;;;;;8.83;53.68;101437.91;6168714;28;20229;-58
2021/03/21 08:19:52;;;;;;;20.17;5.77;;;;;;;9.66;61.05;101443.63;6179023;28;20237;-59
2021/03/21 08:23:19;;;;;;;26.27;8.17;;;;;;;9.38;55.61;101445.22;6183285;28;20241;-58
2021/03/21 08:26:44;;;;;;;143.17;82.73;;;;;;;9.58;52.87;101451.41;6181985;28;20434;-55
2021/03/21 08:30:09;;;;;;;169.50;148.37;;;;;;;10.08;50.68;101456.81;6176785;28;20320;-59
2021/03/21 08:33:32;;;;;;;39.33;23.67;;;;;;;9.75;50.26;101464.50;6178276;28;20253;-53
2021/03/21 08:36:52;;;;;;;515.87;352.90;;;;;;;10.33;50.83;101469.06;6183394;28;20505;-55
2021/03/21 08:40:21;;;;;;;385.43;343.70;;;;;;;10.44;50.48;101467.34;6176590;28;20624;-59
2021/03/21 08:43:42;;;;;;;247.97;221.73;;;;;;;10.64;50.79;101471.72;6184144;28;20604;-60
2021/03/21 08:47:04;;;;;;;48.07;30.83;;;;;;;10.43;49.88;101475.16;6180111;28;20312;-57
2021/03/21 08:50:33;;;;;;;23.80;8.87;;;;;;;10.12;48.73;101476.75;6184044;28;20229;-57
2021/03/21 08:53:57;;;;;;;22.50;8.20;;;;;;;10.37;48.29;101490.75;6182329;28;20233;-57
2021/03/21 08:57:30;;;;;;;28.77;7.50;;;;;;;10.88;48.00;101483.03;6166563;28;20573;-59
2021/03/21 09:00:51;;;;;;;28.47;7.40;;;;;;;9.84;49.77;101490.53;6181469;28;20225;-58
2021/03/21 09:04:14;;;;;;;26.13;8.87;;;;;;;10.02;49.13;101481.06;6184079;28;20230;-59
2021/03/21 09:07:37;;;;;;;19.80;5.57;;;;;;;9.97;48.73;101488.88;6182274;28;20226;-56
2021/03/21 09:11:00;;;;;;;23.23;6.70;;;;;;;10.17;47.87;101488.94;6183925;28;20234;-59
2021/03/21 09:14:25;;;;;;;20.93;5.97;;;;;;;10.15;47.91;101489.81;6180418;28;20226;-56
2021/03/21 09:18:05;;;;;;;21.93;7.00;;;;;;;10.58;47.59;101495.16;6183631;28;20591;-58
2021/03/21 09:21:27;;;;;;;24.47;8.40;;;;;;;10.34;48.37;101499.44;6190690;28;20324;-56
2021/03/21 09:24:58;;;;;;;23.37;7.40;;;;;;;10.91;47.79;101496.91;6180514;28;20226;-58
2021/03/21 09:28:20;;;;;;;26.67;9.13;;;;;;;10.25;48.40;101507.19;6181466;28;20226;-59
2021/03/21 09:31:41;;;;;;;18.60;5.20;;;;;;;10.63;47.63;101509.91;6186665;28;20229;-54
2021/03/21 09:35:34;;;;;;;25.13;6.67;;;;;;;11.25;46.14;101524.75;6183472;28;20654;-58
2021/03/21 09:38:59;;;;;;;16.90;6.60;;;;;;;11.50;45.40;101529.06;6177755;28;20325;-61
2021/03/21 09:42:19;;;;;;;17.57;6.60;;;;;;;11.17;46.11;101538.63;6181763;28;20229;-58
2021/03/21 09:45:41;;;;;;;19.80;6.80;;;;;;;11.21;45.79;101542.13;6183927;28;20317;-57
2021/03/21 09:49:06;;;;;;;19.80;6.53;;;;;;;11.72;44.92;101544.66;6181460;28;20234;-59
2021/03/21 09:52:39;;;;;;;19.80;6.67;;;;;;;11.14;45.39;101541.22;6184065;28;20226;-55
2021/03/21 09:56:09;;;;;;;16.27;4.73;;;;;;;11.54;44.41;101525.56;6170138;28;20881;-58
2021/03/21 09:59:45;;;;;;;20.07;5.53;;;;;;;11.51;44.45;101533.38;6180476;28;20237;-59
2021/03/21 10:03:10;;;;;;;16.53;4.80;;;;;;;11.65;44.11;101522.06;6187084;28;20237;-56
2021/03/21 10:06:38;;;;;;;13.30;5.87;;;;;;;11.42;44.34;101531.66;6182496;28;20225;-58
2021/03/21 10:10:00;;;;;;;18.53;5.47;;;;;;;12.08;43.50;101533.28;6182183;28;20218;-57
2021/03/21 10:13:30;;;;;;;13.70;4.23;;;;;;;12.46;42.75;101531.34;6181870;28;20320;-56
2021/03/21 10:16:52;;;;;;;21.27;7.17;;;;;;;12.92;41.43;101554.59;6177041;28;20278;-59
2021/03/21 10:20:15;;;;;;;19.80;4.60;;;;;;;12.39;42.18;101546.22;6183898;28;20246;-56
2021/03/21 10:24:14;;;;;;;17.30;6.37;;;;;;;11.94;42.27;101549.00;6186888;28;20317;-55
2021/03/21 10:27:42;;;;;;;14.63;4.70;;;;;;;12.01;42.50;101550.69;6188239;28;20238;-59
2021/03/21 10:31:29;;;;;;;18.50;5.23;;;;;;;12.05;42.99;101563.75;6178056;28;20225;-58
2021/03/21 10:34:50;;;;;;;16.77;5.37;;;;;;;12.46;41.28;101567.94;6177622;28;20647;-58
2021/03/21 10:38:11;;;;;;;15.67;6.30;;;;;;;11.75;43.25;101568.16;6174782;28;20838;-58
2021/03/21 10:41:59;;;;;;;11.73;4.63;;;;;;;11.66;42.53;101568.16;6184463;28;20234;-57
2021/03/21 10:45:46;;;;;;;11.57;3.60;;;;;;;11.79;42.58;101585.53;6182181;28;20246;-58
2021/03/21 10:49:08;;;;;;;14.00;4.60;;;;;;;12.70;41.06;101578.25;6182358;28;20628;-58
2021/03/21 10:52:31;;;;;;;14.40;4.30;;;;;;;13.36;39.41;101575.19;6179910;28;20230;-57
2021/03/21 10:56:08;;;;;;;20.07;7.60;;;;;;;13.97;38.65;101568.47;6181285;28;20604;-58
2021/03/21 10:59:31;;;;;;;21.43;8.70;;;;;;;14.70;36.85;101578.97;6184702;28;20616;-58
2021/03/21 11:03:10;;;;;;;12.17;4.73;;;;;;;15.25;35.59;101579.00;6181969;28;20312;-57
2021/03/21 11:06:34;;;;;;;13.93;5.47;;;;;;;15.42;35.02;101582.22;6178383;28;20310;-58
2021/03/21 11:09:57;;;;;;;16.20;9.03;;;;;;;15.77;35.01;101578.13;6179866;28;20238;-58
2021/03/21 11:13:26;;;;;;;9.10;3.43;;;;;;;17.19;31.96;101575.13;6183854;28;20233;-56
2021/03/21 11:16:56;;;;;;;7.03;3.07;;;;;;;20.69;28.10;101580.88;6182866;28;20620;-63
2021/03/21 11:20:28;;;;;;;8.77;3.47;;;;;;;20.02;26.65;101571.88;6182422;28;20662;-63
2021/03/21 11:23:53;;;;;;;10.52;3.15;;;;;;;21.47;25.66;101568.88;6176208;28;20258;-63
2021/03/21 11:27:24;;;;;;;11.95;3.53;;;;;;;23.47;26.60;101568.34;6181161;28;20583;-65
2021/03/21 11:30:51;;;;;;;8.07;4.47;;;;;;;22.89;24.37;101563.28;6183873;28;20316;-67
2021/03/21 11:34:16;;;;;;;9.45;3.08;;;;;;;24.13;22.14;101562.25;6178986;28;20233;-66
2021/03/21 11:37:40;;;;;;;7.40;3.38;;;;;;;26.36;19.87;101550.13;6168255;28;20320;-65
2021/03/21 11:41:02;;;;;;;10.95;4.28;;;;;;;28.48;18.32;101546.38;6163668;28;20531;-66
2021/03/21 11:44:25;;;;;;;11.50;3.20;;;;;;;27.13;18.10;101559.31;6180843;28;20608;-69
2021/03/21 11:47:48;;;;;;;8.07;2.70;;;;;;;25.00;19.92;101557.47;6181037;28;20531;-68
2021/03/21 11:51:11;;;;;;;6.88;3.33;;;;;;;27.25;17.56;101563.88;6181749;28;20230;-70
2021/03/21 11:54:34;;;;;;;6.47;2.67;;;;;;;25.46;19.68;101554.78;6184154;28;20233;-69
2021/03/21 11:58:03;;;;;;;9.40;3.50;;;;;;;26.33;18.62;101559.19;6181957;28;20238;-70
2021/03/21 12:01:32;;;;;;;36.22;6.07;;;;;;;27.03;17.92;101545.72;6181306;28;20221;-69
2021/03/21 12:04:54;;;;;;;5.72;2.67;;;;;;;25.12;19.10;101546.91;6181089;28;20225;-67
2021/03/21 12:08:24;;;;;;;5.47;2.53;;;;;;;25.67;18.44;101547.28;6176344;28;20245;-64
2021/03/21 12:11:45;;;;;;;25.52;5.57;;;;;;;25.40;20.29;101547.16;6182810;28;20233;-63
2021/03/21 12:15:14;;;;;;;5.20;2.60;;;;;;;25.04;20.66;101559.84;6175711;28;20316;-63
2021/03/21 12:18:35;;;;;;;8.75;2.55;;;;;;;22.86;22.63;101564.31;6179770;28;20587;-71
2021/03/21 12:21:59;;;;;;;11.73;8.05;;;;;;;22.71;21.75;101541.16;6191644;28;20620;-71
2021/03/21 12:25:23;;;;;;;49.17;10.02;;;;;;;21.32;25.58;101551.81;6180702;28;20500;-67
2021/03/21 12:28:57;;;;;;;6.30;3.35;;;;;;;19.19;26.44;101554.50;6176079;28;20511;-71
2021/03/21 12:32:37;;;;;;;14.50;4.60;;;;;;;20.51;26.13;101554.16;6183166;28;20324;-71
2021/03/21 12:36:13;;;;;;;15.07;3.70;;;;;;;19.62;25.84;101547.72;6179122;28;20225;-70
2021/03/21 12:39:36;;;;;;;8.57;3.60;;;;;;;19.48;24.52;101563.16;6181764;28;20604;-74
2021/03/21 12:42:56;;;;;;;7.55;4.43;;;;;;;19.90;26.07;101564.41;6159952;28;20233;-70
2021/03/21 12:46:16;;;;;;;6.82;2.97;;;;;;;21.24;24.93;101558.28;6179308;28;20233;-63
2021/03/21 12:49:45;;;;;;;5.85;3.00;;;;;;;24.50;18.34;101560.19;6183795;28;20410;-53
2021/03/21 12:53:09;;;;;;;6.57;2.70;;;;;;;28.42;15.38;101542.31;6183227;28;20226;-57
2021/03/21 12:56:29;;;;;;;7.18;3.20;;;;;;;30.17;14.81;101552.22;6188621;28;20238;-57
2021/03/21 12:59:51;;;;;;;7.70;4.18;;;;;;;30.25;14.10;101559.66;6185445;28;20336;-60
2021/03/21 13:03:23;;;;;;;8.93;5.55;;;;;;;29.80;13.94;101557.84;6186907;28;20620;-57
2021/03/21 13:06:45;;;;;;;365.08;337.85;;;;;;;27.82;15.43;101543.03;6181264;28;20324;-58
2021/03/21 13:10:06;;;;;;;83.40;74.90;;;;;;;27.14;15.56;101539.63;6174759;28;20257;-54
2021/03/21 13:13:28;;;;;;;13.63;7.50;;;;;;;24.95;17.91;101555.03;6181591;28;20252;-58
2021/03/21 13:16:48;;;;;;;8.02;6.03;;;;;;;20.43;22.49;101561.53;6186686;28;20491;-53
2021/03/21 13:20:12;;;;;;;6.57;3.25;;;;;;;21.92;21.58;101551.88;6185153;28;20755;-57
2021/03/21 13:23:33;;;;;;;6.13;2.38;;;;;;;21.43;19.03;101561.03;6182745;28;20234;-54
2021/03/21 13:26:53;;;;;;;8.80;2.40;;;;;;;19.74;23.39;101567.59;6181666;28;20234;-56
2021/03/21 13:30:16;;;;;;;5.15;2.80;;;;;;;17.40;25.95;101577.22;6180768;28;20234;-54
2021/03/21 13:33:37;;;;;;;6.50;2.92;;;;;;;17.87;26.20;101580.41;6180201;28;20233;-56
2021/03/21 13:36:58;;;;;;;4.57;1.92;;;;;;;17.09;26.70;101583.25;6183487;28;20234;-56
2021/03/21 13:40:22;;;;;;;7.37;3.40;;;;;;;17.26;29.75;101574.09;6179551;28;20233;-73
2021/03/21 13:43:42;;;;;;;46.45;6.72;;;;;;;23.03;20.09;101562.63;6467404;23;20328;-73
2021/03/21 13:47:03;;;;;;;6.57;2.72;;;;;;;20.53;22.90;101568.19;6197613;28;20332;-74
2021/03/21 13:50:24;;;;;;;8.95;3.03;;;;;;;18.90;24.85;101571.25;6188060;28;20253;-71
2021/03/21 13:53:45;;;;;;;4.33;1.93;;;;;;;18.44;24.67;101570.88;6194238;28;20261;-69
2021/03/21 13:57:07;;;;;;;7.03;2.37;;;;;;;16.77;27.94;101568.19;6201763;28;20595;-67
2021/03/21 14:00:28;;;;;;;3.17;1.50;;;;;;;16.08;28.54;101561.78;6191666;28;20323;-66
2021/03/21 14:03:49;;;;;;;3.63;2.17;;;;;;;16.31;29.00;101562.19;6192190;28;20237;-69
2021/03/21 14:07:09;;;;;;;10.30;3.70;;;;;;;16.18;28.94;101568.56;6199315;28;20261;-69
2021/03/21 14:10:31;;;;;;;5.60;3.17;;;;;;;16.67;27.45;101559.66;6196972;28;20260;-71
2021/03/21 14:13:52;;;;;;;5.50;2.50;;;;;;;16.11;29.40;101566.97;6199309;28;20229;-71
2021/03/21 14:17:12;;;;;;;5.77;2.70;;;;;;;15.68;32.07;101573.00;6197286;28;20229;-70
2021/03/21 14:20:37;;;;;;;14.47;3.80;;;;;;;15.71;30.38;101562.47;6194039;28;20334;-75
2021/03/21 14:23:58;;;;;;;6.07;3.27;;;;;;;15.81;32.09;101566.69;6200767;28;20555;-69
2021/03/21 14:27:18;;;;;;;6.10;2.77;;;;;;;14.99;32.22;101567.19;6199801;28;20230;-69
2021/03/21 14:30:41;;;;;;;7.37;3.27;;;;;;;15.51;32.88;101563.69;6198160;28;20237;-72
2021/03/21 14:34:02;;;;;;;7.60;3.63;;;;;;;15.00;32.55;101555.78;6193218;28;20233;-72
2021/03/21 14:37:22;;;;;;;6.23;3.40;;;;;;;15.22;32.55;101558.94;6196808;28;20234;-73
2021/03/21 14:40:43;;;;;;;7.80;3.50;;;;;;;15.75;30.83;101556.28;6197991;28;20275;-74
2021/03/21 14:44:04;;;;;;;7.07;2.80;;;;;;;15.70;30.54;101544.97;6193675;28;20312;-72
2021/03/21 14:47:25;;;;;;;13.73;4.97;;;;;;;15.47;30.76;101548.91;6184076;28;20245;-71
2021/03/21 14:50:46;;;;;;;8.50;3.13;;;;;;;15.42;30.97;101555.97;6188446;28;20233;-72
2021/03/21 14:54:07;;;;;;;9.80;3.40;;;;;;;15.64;30.62;101545.94;6209376;28;20317;-73
2021/03/21 14:57:27;;;;;;;7.40;2.83;;;;;;;14.72;32.08;101553.59;6188589;28;20434;-72
2021/03/21 15:00:48;;;;;;;5.97;2.50;;;;;;;15.10;32.10;101549.53;6188325;28;20526;-72
2021/03/21 15:04:10;;;;;;;4.63;2.57;;;;;;;14.46;32.38;101556.56;6191515;28;20226;-73
2021/03/21 15:07:30;;;;;;;6.90;3.03;;;;;;;14.08;32.09;101552.66;6196116;28;20586;-73
2021/03/21 15:10:53;;;;;;;4.90;1.93;;;;;;;14.13;32.96;101552.59;6198576;28;20425;-73
2021/03/21 15:14:14;;;;;;;7.87;3.03;;;;;;;14.31;33.50;101552.38;6203596;28;20328;-72
2021/03/21 15:17:35;;;;;;;11.10;3.40;;;;;;;13.77;34.09;101545.16;6203168;28;20229;-73
2021/03/21 15:20:58;;;;;;;8.77;2.80;;;;;;;13.90;33.19;101558.97;6193301;28;20232;-56
2021/03/21 15:24:19;;;;;;;8.03;3.73;;;;;;;13.69;33.14;101551.34;6184099;28;20257;-53
2021/03/21 15:27:39;;;;;;;8.60;4.37;;;;;;;13.63;34.25;101547.06;6193546;28;22045;-55
2021/03/21 15:31:00;;;;;;;9.37;3.60;;;;;;;13.49;35.01;101549.81;6197584;28;20225;-49
2021/03/21 15:34:22;;;;;;;10.57;3.73;;;;;;;13.26;36.24;101549.09;6192833;28;20515;-56
2021/03/21 15:37:43;;;;;;;9.50;3.67;;;;;;;12.31;39.16;101533.19;6196912;28;20472;-55
2021/03/21 15:41:03;;;;;;;12.17;4.40;;;;;;;12.52;39.80;101547.88;6200968;28;20261;-52
2021/03/21 15:44:24;;;;;;;16.13;5.03;;;;;;;11.80;41.38;101543.75;6195027;28;20603;-52
2021/03/21 15:47:44;;;;;;;15.20;4.50;;;;;;;11.69;42.17;101550.75;6191858;28;20229;-57
2021/03/21 15:51:05;;;;;;;13.10;5.53;;;;;;;11.37;42.63;101546.44;6194866;28;20392;-57
2021/03/21 15:54:26;;;;;;;18.00;4.73;;;;;;;11.39;42.84;101555.13;6194156;28;20308;-52
2021/03/21 15:57:46;;;;;;;16.10;4.20;;;;;;;11.43;43.64;101561.22;6196053;28;20255;-51
2021/03/21 16:01:07;;;;;;;16.80;5.97;;;;;;;11.16;44.26;101567.31;6190086;28;20233;-55
2021/03/21 16:04:28;;;;;;;14.53;4.20;;;;;;;11.33;44.70;101569.94;6187249;28;20233;-54